Time;durP1;ratioP1;P1;durP2;ratioP2;P2;SDS_P1;SDS_P2;PMS_P1;PMS_P2;Temp;Humidity;BMP_temperature;BMP_pressure;BME280_temperature;BME280_humidity;BME280_pressure;Samples;Min_cycle;Max_cycle;Signal;HPM_P1;HPM_P2
2022/10/30 00:02:17;;;;;;;15.97;6.27;;;-11.20;99.90;;;;;;5025496;28;20989;-79
2022/10/30 00:04:43;;;;;;;15.83;6.93;;;-15.70;99.90;;;;;;5023864;28;20510;-78
2022/10/30 00:07:08;;;;;;;24.43;6.33;;;-12.60;99.90;;;;;;5025485;28;20215;-80
2022/10/30 00:09:34;;;;;;;12.43;6.07;;;-13.10;99.90;;;;;;5029574;28;20259;-80
2022/10/30 00:12:00;;;;;;;22.77;8.83;;;-13.30;99.90;;;;;;5036104;28;20180;-80
2022/10/30 00:14:26;;;;;;;18.23;7.83;;;-13.30;99.90;;;;;;5034858;28;20481;-80
2022/10/30 00:16:51;;;;;;;15.23;6.63;;;-14.60;99.90;;;;;;5029894;28;20181;-79
2022/10/30 00:19:17;;;;;;;18.43;7.50;;;-10.80;99.90;;;;;;5032408;28;20199;-78
2022/10/30 00:21:43;;;;;;;9.43;6.57;;;-9.90;99.90;;;;;;5024457;28;20259;-76
2022/10/30 00:24:10;;;;;;;20.97;7.07;;;-10.70;99.90;;;;;;5035277;28;20546;-77
2022/10/30 00:26:35;;;;;;;19.37;6.50;;;-10.30;99.90;;;;;;5029114;28;20500;-78
2022/10/30 00:29:01;;;;;;;24.77;8.33;;;-12.20;99.90;;;;;;5046726;28;20185;-79
2022/10/30 00:31:27;;;;;;;18.90;6.97;;;-12.00;99.90;;;;;;5034536;28;20180;-77
2022/10/30 00:33:54;;;;;;;20.47;8.47;;;-12.50;99.90;;;;;;5018681;28;20546;-79
2022/10/30 00:36:20;;;;;;;16.37;7.47;;;-14.30;99.90;;;;;;5017506;28;20189;-78
2022/10/30 00:38:46;;;;;;;19.83;7.23;;;-11.90;99.90;;;;;;5014585;28;20470;-79
2022/10/30 00:41:18;;;;;;;15.30;7.20;;;-11.70;99.90;;;;;;5034607;28;20636;-74
2022/10/30 00:43:44;;;;;;;15.50;8.13;;;-9.50;99.90;;;;;;5047644;28;20184;-77
2022/10/30 00:46:29;;;;;;;18.27;8.20;;;-11.60;99.90;;;;;;5041110;28;20260;-79
2022/10/30 00:49:10;;;;;;;21.20;6.90;;;-10.30;99.90;;;;;;5028944;28;20173;-74
2022/10/30 00:51:39;;;;;;;13.20;6.57;;;-9.90;99.90;;;;;;5030238;28;20177;-78
2022/10/30 00:54:06;;;;;;;17.73;7.40;;;-11.40;99.90;;;;;;5035089;28;20177;-72
2022/10/30 00:56:33;;;;;;;12.77;6.57;;;-11.40;99.90;;;;;;5035590;28;20185;-73
2022/10/30 00:59:07;;;;;;;15.23;5.27;;;-11.00;99.90;;;;;;5026354;28;20198;-72
2022/10/30 01:01:37;;;;;;;14.63;6.20;;;-14.10;99.90;;;;;;5030556;28;20246;-79
2022/10/30 01:04:05;;;;;;;15.47;6.23;;;-11.30;99.90;;;;;;5029117;28;20215;-75
2022/10/30 01:06:34;;;;;;;16.50;6.57;;;-12.20;99.90;;;;;;5023916;28;20197;-74
2022/10/30 01:09:02;;;;;;;14.77;7.07;;;-9.80;99.90;;;;;;5031468;28;20242;-75
2022/10/30 01:11:27;;;;;;;13.73;6.93;;;-11.20;99.90;;;;;;5035064;28;20298;-72
2022/10/30 01:13:57;;;;;;;19.37;6.30;;;-11.10;99.90;;;;;;5030678;28;20195;-71
2022/10/30 01:16:28;;;;;;;19.23;6.67;;;-10.80;99.90;;;;;;5030542;28;20513;-76
2022/10/30 01:19:03;;;;;;;16.67;7.07;;;-12.30;99.90;;;;;;5024832;28;20190;-73
2022/10/30 01:21:41;;;;;;;11.17;6.57;;;-12.70;99.90;;;;;;5030882;28;20230;-71
2022/10/30 01:24:15;;;;;;;11.07;5.73;;;-12.30;99.90;;;;;;5034906;28;20183;-76
2022/10/30 01:27:17;;;;;;;15.07;7.83;;;-12.50;99.90;;;;;;5032435;28;20200;-71
2022/10/30 01:30:01;;;;;;;13.70;6.77;;;-11.00;99.90;;;;;;5032905;28;20737;-71
2022/10/30 01:32:36;;;;;;;10.67;5.97;;;-11.70;99.90;;;;;;5028099;28;20177;-72
2022/10/30 01:35:24;;;;;;;16.27;7.03;;;-10.20;99.90;;;;;;5030193;28;20581;-73
2022/10/30 01:37:56;;;;;;;20.80;7.03;;;-10.00;99.90;;;;;;5035177;28;20189;-75
2022/10/30 01:40:22;;;;;;;10.47;5.90;;;-10.90;99.90;;;;;;5034709;28;20197;-71
2022/10/30 01:42:56;;;;;;;14.07;6.73;;;-11.50;99.90;;;;;;5028198;28;20195;-72
2022/10/30 01:45:48;;;;;;;12.70;7.23;;;-12.20;99.90;;;;;;5033616;28;20204;-71
2022/10/30 01:48:28;;;;;;;12.47;6.27;;;-10.30;99.90;;;;;;5025020;28;20217;-73
2022/10/30 01:51:04;;;;;;;13.13;7.33;;;-10.60;99.90;;;;;;5030927;28;20475;-71
2022/10/30 01:53:48;;;;;;;20.13;6.60;;;-10.90;99.90;;;;;;5023788;28;20185;-71
2022/10/30 01:56:47;;;;;;;18.13;7.63;;;-14.10;99.90;;;;;;5034630;28;20181;-70
2022/10/30 01:59:24;;;;;;;13.17;5.57;;;-14.20;99.90;;;;;;5053949;28;20227;-72
2022/10/30 02:01:49;;;;;;;10.90;6.47;;;-15.60;99.90;;;;;;5033520;28;20196;-71
2022/10/30 02:04:16;;;;;;;9.37;6.83;;;-14.30;99.90;;;;;;5037038;28;20492;-70
2022/10/30 02:06:41;;;;;;;16.20;6.40;;;-15.10;99.90;;;;;;5031553;28;20263;-72
2022/10/30 02:09:07;;;;;;;21.00;8.23;;;-13.80;99.90;;;;;;5031558;28;20633;-73
2022/10/30 02:11:34;;;;;;;27.23;7.37;;;-13.60;99.90;;;;;;5038041;28;20187;-70
2022/10/30 02:14:04;;;;;;;15.00;4.67;;;-13.30;99.90;;;;;;5028725;28;20185;-72
2022/10/30 02:16:36;;;;;;;16.60;6.67;;;-13.00;99.90;;;;;;5038009;28;20188;-71
2022/10/30 02:19:02;;;;;;;21.20;7.10;;;-14.50;99.90;;;;;;5035248;28;21063;-72
2022/10/30 02:21:28;;;;;;;24.87;7.83;;;-12.20;99.90;;;;;;5038316;28;20310;-70
2022/10/30 02:23:54;;;;;;;18.77;5.80;;;-14.10;99.90;;;;;;5037638;28;20173;-70
2022/10/30 02:26:20;;;;;;;11.07;6.33;;;-12.00;99.90;;;;;;5038161;28;20227;-71
2022/10/30 02:28:45;;;;;;;12.60;6.03;;;-12.10;99.90;;;;;;5038055;28;20186;-73
2022/10/30 02:31:11;;;;;;;17.93;6.47;;;-12.20;99.90;;;;;;5030915;28;20215;-72
2022/10/30 02:33:37;;;;;;;12.63;6.00;;;-12.30;99.90;;;;;;5028265;28;20181;-71
2022/10/30 02:36:03;;;;;;;17.37;6.27;;;-9.70;99.90;;;;;;5027339;28;20181;-71
2022/10/30 02:38:29;;;;;;;23.00;7.47;;;-10.70;99.90;;;;;;5030281;28;20184;-71
2022/10/30 02:40:57;;;;;;;11.43;5.50;;;-12.90;99.90;;;;;;5030091;28;20291;-73
2022/10/30 02:43:23;;;;;;;12.67;6.30;;;-12.50;99.90;;;;;;5037598;28;20187;-72
2022/10/30 02:45:50;;;;;;;16.00;5.47;;;-11.00;99.90;;;;;;5038055;28;20181;-72
2022/10/30 02:48:16;;;;;;;15.30;7.13;;;-9.90;99.90;;;;;;5026380;28;20316;-70
2022/10/30 02:50:42;;;;;;;12.57;6.77;;;-8.50;99.90;;;;;;5033166;28;20256;-72
2022/10/30 02:53:08;;;;;;;11.77;6.63;;;-9.70;99.90;;;;;;5032016;28;20191;-71
2022/10/30 02:55:33;;;;;;;9.03;5.73;;;-8.30;99.90;;;;;;5033549;28;20174;-71
2022/10/30 02:57:59;;;;;;;13.27;5.53;;;-9.90;99.90;;;;;;5030695;28;20315;-71
2022/10/30 03:00:25;;;;;;;9.50;6.87;;;-12.50;99.90;;;;;;5037028;28;20246;-70
2022/10/30 03:02:55;;;;;;;10.03;5.67;;;-13.70;99.90;;;;;;5032685;28;20286;-75
2022/10/30 03:05:21;;;;;;;11.07;5.47;;;-12.10;99.90;;;;;;5031340;28;20181;-71
2022/10/30 03:07:50;;;;;;;17.07;7.07;;;-12.50;99.90;;;;;;5025878;28;20212;-70
2022/10/30 03:10:17;;;;;;;9.53;6.30;;;-12.50;99.90;;;;;;5035832;28;20188;-70
2022/10/30 03:12:43;;;;;;;15.60;5.70;;;-13.30;99.90;;;;;;5031846;28;20173;-71
2022/10/30 03:15:09;;;;;;;11.17;6.17;;;-8.80;99.90;;;;;;5037253;28;20298;-70
2022/10/30 03:17:34;;;;;;;11.07;5.70;;;-7.80;99.90;;;;;;5037262;28;20185;-71
2022/10/30 03:20:00;;;;;;;13.70;7.33;;;-7.40;99.90;;;;;;5019765;28;20691;-71
2022/10/30 03:22:26;;;;;;;10.83;6.23;;;-9.40;99.90;;;;;;5045603;28;20585;-72
2022/10/30 03:24:52;;;;;;;10.70;6.80;;;-10.80;99.90;;;;;;5026108;28;20185;-70
2022/10/30 03:27:17;;;;;;;21.50;7.23;;;-10.30;99.90;;;;;;5036771;28;20402;-72
2022/10/30 03:29:43;;;;;;;15.57;7.33;;;-10.30;99.90;;;;;;5036794;28;20212;-69
2022/10/30 03:32:10;;;;;;;18.03;7.20;;;-9.20;99.90;;;;;;5023190;28;20176;-72
2022/10/30 03:34:36;;;;;;;16.33;6.70;;;-8.40;99.90;;;;;;5030515;28;20512;-72
2022/10/30 03:37:02;;;;;;;16.27;7.93;;;-11.50;99.90;;;;;;5036276;28;20185;-72
2022/10/30 03:39:28;;;;;;;15.00;7.03;;;-10.60;99.90;;;;;;5030904;28;20189;-70
2022/10/30 03:41:54;;;;;;;9.23;5.73;;;-10.90;99.90;;;;;;5028414;28;20181;-72
2022/10/30 03:44:20;;;;;;;9.90;6.27;;;-11.80;99.90;;;;;;5021487;28;20184;-74
2022/10/30 03:46:45;;;;;;;13.33;6.43;;;-12.50;99.90;;;;;;5031488;28;20201;-73
2022/10/30 03:49:11;;;;;;;14.87;7.03;;;-12.30;99.90;;;;;;5035208;28;20603;-74
2022/10/30 03:51:37;;;;;;;12.23;6.33;;;-10.50;99.90;;;;;;5033792;28;20236;-72
2022/10/30 03:54:03;;;;;;;16.10;7.17;;;-11.30;99.90;;;;;;5047985;28;20477;-73
2022/10/30 03:56:28;;;;;;;9.50;6.30;;;-10.90;99.90;;;;;;5031130;28;20515;-71
2022/10/30 03:58:54;;;;;;;20.07;5.90;;;-11.40;99.90;;;;;;5035263;28;20581;-71
2022/10/30 04:01:20;;;;;;;31.97;6.93;;;-12.50;99.90;;;;;;5030138;28;20585;-73
2022/10/30 04:03:46;;;;;;;14.60;6.03;;;-11.60;99.90;;;;;;5029243;28;20208;-73
2022/10/30 04:06:12;;;;;;;6.67;5.97;;;-11.50;99.90;;;;;;5032145;28;20208;-70
2022/10/30 04:08:38;;;;;;;12.37;7.53;;;-13.40;99.90;;;;;;5035897;28;20188;-73
2022/10/30 04:11:04;;;;;;;16.27;6.10;;;-12.10;99.90;;;;;;5035456;28;20184;-70
2022/10/30 04:13:30;;;;;;;13.90;6.60;;;-12.90;99.90;;;;;;5035711;28;20189;-72
2022/10/30 04:15:56;;;;;;;10.77;6.33;;;-12.40;99.90;;;;;;5035632;28;20185;-72
2022/10/30 04:18:22;;;;;;;7.27;5.40;;;-15.60;99.90;;;;;;5017808;28;20185;-72
2022/10/30 04:20:48;;;;;;;11.13;5.67;;;-12.60;99.90;;;;;;5018048;28;20247;-76
2022/10/30 04:23:16;;;;;;;7.43;6.00;;;-11.80;99.90;;;;;;5026974;28;20196;-72
2022/10/30 04:25:42;;;;;;;11.27;6.10;;;-12.60;99.90;;;;;;5033320;28;20192;-74
2022/10/30 04:28:09;;;;;;;9.57;6.37;;;-11.10;99.90;;;;;;5026500;28;20639;-72
2022/10/30 04:30:35;;;;;;;10.83;6.10;;;-11.90;99.90;;;;;;5027592;28;20224;-72
2022/10/30 04:33:04;;;;;;;9.73;6.53;;;-12.00;99.90;;;;;;5033279;28;20230;-77
2022/10/30 04:35:32;;;;;;;16.90;6.77;;;-12.40;99.90;;;;;;5034583;28;20212;-78
2022/10/30 04:38:00;;;;;;;12.63;7.43;;;-13.30;99.90;;;;;;5024687;28;20203;-75
2022/10/30 04:40:32;;;;;;;13.90;6.73;;;-10.90;99.90;;;;;;5029674;28;20188;-77
2022/10/30 04:42:58;;;;;;;12.70;6.00;;;-10.40;99.90;;;;;;5028492;28;20189;-80
2022/10/30 04:45:25;;;;;;;19.73;6.37;;;-11.30;99.90;;;;;;5025994;28;20205;-78
2022/10/30 04:47:50;;;;;;;9.33;5.87;;;-9.90;99.90;;;;;;5027127;28;20205;-79
2022/10/30 04:50:16;;;;;;;14.03;5.87;;;-12.50;99.90;;;;;;5035613;28;20668;-74
2022/10/30 04:52:42;;;;;;;8.00;6.20;;;-12.20;99.90;;;;;;5051022;28;20176;-72
2022/10/30 04:55:09;;;;;;;8.67;5.53;;;-11.50;99.90;;;;;;5029733;28;20233;-73
2022/10/30 04:57:36;;;;;;;31.03;6.40;;;-11.30;99.90;;;;;;5030245;28;20200;-71
2022/10/30 05:00:06;;;;;;;7.47;5.60;;;-12.20;99.90;;;;;;5020857;28;20183;-76
2022/10/30 05:02:35;;;;;;;15.77;6.83;;;-13.00;99.90;;;;;;5027832;28;20295;-74
2022/10/30 05:05:01;;;;;;;17.20;6.77;;;-11.40;99.90;;;;;;5035802;28;20177;-75
2022/10/30 05:07:27;;;;;;;11.00;7.13;;;-14.20;99.90;;;;;;5035233;28;20223;-73
2022/10/30 05:09:52;;;;;;;20.80;8.13;;;-12.30;99.90;;;;;;5017288;28;20184;-78
2022/10/30 05:12:19;;;;;;;11.73;7.13;;;-12.40;99.90;;;;;;5035221;28;20204;-77
2022/10/30 05:14:45;;;;;;;9.53;6.43;;;-11.70;99.90;;;;;;5027083;28;20491;-74
2022/10/30 05:17:11;;;;;;;12.43;6.67;;;-12.10;99.90;;;;;;5029303;28;20172;-76
2022/10/30 05:19:36;;;;;;;11.13;6.33;;;-12.00;99.90;;;;;;5028583;28;20195;-75
2022/10/30 05:22:02;;;;;;;6.93;6.03;;;-12.90;99.90;;;;;;5032868;28;20188;-78
2022/10/30 05:24:28;;;;;;;17.50;6.97;;;-14.60;99.90;;;;;;5032260;28;20208;-79
2022/10/30 05:26:53;;;;;;;14.10;6.33;;;-16.10;99.90;;;;;;5026390;28;20212;-76
2022/10/30 05:29:19;;;;;;;14.50;6.63;;;-15.20;99.90;;;;;;5018541;28;20182;-79
2022/10/30 05:31:45;;;;;;;12.00;6.87;;;-12.80;99.90;;;;;;5024979;28;20207;-79
2022/10/30 05:34:11;;;;;;;18.13;7.20;;;-14.20;99.90;;;;;;5026676;28;20181;-79
2022/10/30 05:36:36;;;;;;;12.33;6.87;;;-14.40;99.90;;;;;;5031495;28;20189;-78
2022/10/30 05:39:02;;;;;;;7.37;6.23;;;-14.00;99.90;;;;;;5034412;28;20209;-76
2022/10/30 05:41:29;;;;;;;11.20;6.80;;;-16.10;99.90;;;;;;5039137;28;20188;-79
2022/10/30 05:43:55;;;;;;;9.90;6.37;;;-14.00;99.90;;;;;;5032249;28;20585;-77
2022/10/30 05:46:20;;;;;;;16.67;7.73;;;-14.60;99.90;;;;;;5038818;28;20264;-76
2022/10/30 05:48:46;;;;;;;17.30;6.73;;;-14.60;99.90;;;;;;5031702;28;20522;-76
2022/10/30 05:51:12;;;;;;;8.17;5.90;;;-13.90;99.90;;;;;;5032843;28;20227;-78
2022/10/30 05:53:37;;;;;;;14.27;6.57;;;-15.20;99.90;;;;;;5033967;28;20525;-74
2022/10/30 05:56:03;;;;;;;14.60;7.63;;;-13.20;99.90;;;;;;5033882;28;20276;-78
2022/10/30 05:58:29;;;;;;;16.53;7.20;;;-12.90;99.90;;;;;;5038672;28;20211;-77
2022/10/30 06:00:55;;;;;;;19.33;7.03;;;-12.20;99.90;;;;;;5031745;28;20203;-81
2022/10/30 06:03:20;;;;;;;16.87;8.00;;;-13.40;99.90;;;;;;5034290;28;20260;-79
2022/10/30 06:05:46;;;;;;;15.93;6.83;;;-13.60;99.90;;;;;;5038563;28;20184;-78
2022/10/30 06:08:15;;;;;;;17.30;7.00;;;-10.80;99.90;;;;;;5038391;28;20219;-75
2022/10/30 06:10:41;;;;;;;12.23;7.87;;;-11.60;99.90;;;;;;5035909;28;20196;-80
2022/10/30 06:13:07;;;;;;;11.37;6.90;;;-10.90;99.90;;;;;;5029091;28;20235;-74
2022/10/30 06:15:33;;;;;;;16.30;7.50;;;-12.30;99.90;;;;;;5028234;28;20212;-70
2022/10/30 06:17:59;;;;;;;12.23;6.67;;;-11.60;99.90;;;;;;5034884;28;20206;-77
2022/10/30 06:20:29;;;;;;;14.07;7.93;;;-12.70;99.90;;;;;;5027004;28;20605;-80
2022/10/30 06:23:05;;;;;;;9.23;6.17;;;-11.90;99.90;;;;;;5029526;28;20194;-75
2022/10/30 06:25:34;;;;;;;10.20;6.40;;;-12.00;99.90;;;;;;5032165;28;20555;-74
2022/10/30 06:27:59;;;;;;;12.30;7.53;;;-12.70;99.90;;;;;;5021805;28;20212;-75
2022/10/30 06:30:26;;;;;;;16.33;6.43;;;-12.30;99.90;;;;;;5033658;28;20184;-74
2022/10/30 06:33:03;;;;;;;16.63;7.57;;;-12.20;99.90;;;;;;5034351;28;20588;-77
2022/10/30 06:35:29;;;;;;;17.33;7.60;;;-11.70;99.90;;;;;;5033048;28;20530;-78
2022/10/30 06:37:58;;;;;;;12.37;7.53;;;-10.80;99.90;;;;;;5032411;28;20177;-74
2022/10/30 06:40:25;;;;;;;15.53;7.57;;;-10.70;99.90;;;;;;5036951;28;20199;-69
2022/10/30 06:42:52;;;;;;;18.10;6.87;;;-11.60;99.90;;;;;;5034335;28;20184;-73
2022/10/30 06:45:21;;;;;;;12.03;7.33;;;-12.10;99.90;;;;;;5034419;28;20539;-79
2022/10/30 06:47:47;;;;;;;9.10;7.53;;;-11.80;99.90;;;;;;5035243;28;20215;-73
2022/10/30 06:50:16;;;;;;;18.87;7.37;;;-11.00;99.90;;;;;;5035595;28;20172;-80
2022/10/30 06:52:43;;;;;;;16.17;6.97;;;-11.60;99.90;;;;;;5036890;28;20181;-78
2022/10/30 06:55:11;;;;;;;11.33;7.33;;;-10.60;99.90;;;;;;5033820;28;20264;-73
2022/10/30 06:57:37;;;;;;;15.40;7.10;;;-11.10;99.90;;;;;;5051580;28;20184;-79
2022/10/30 07:00:04;;;;;;;12.87;7.03;;;-10.30;99.90;;;;;;5033923;28;20204;-79
2022/10/30 07:02:30;;;;;;;15.00;7.37;;;-10.70;99.90;;;;;;5034964;28;20224;-72
2022/10/30 07:04:56;;;;;;;19.30;9.83;;;-9.80;99.90;;;;;;5036290;28;20207;-70
2022/10/30 07:07:22;;;;;;;23.17;8.97;;;-9.10;99.90;;;;;;5036646;28;20249;-76
2022/10/30 07:09:48;;;;;;;18.53;7.63;;;-8.70;99.90;;;;;;5035105;28;20188;-80
2022/10/30 07:12:14;;;;;;;16.83;7.70;;;-8.50;99.90;;;;;;5035680;28;20508;-74
2022/10/30 07:14:41;;;;;;;26.67;9.50;;;-8.30;99.90;;;;;;5035124;28;20200;-77
2022/10/30 07:17:07;;;;;;;15.67;9.00;;;-8.20;99.90;;;;;;5035107;28;20185;-75
2022/10/30 07:19:33;;;;;;;20.30;9.40;;;-9.50;99.90;;;;;;5032025;28;20185;-70
2022/10/30 07:22:00;;;;;;;19.97;8.37;;;-11.20;99.90;;;;;;5032393;28;20254;-74
2022/10/30 07:24:27;;;;;;;23.53;8.57;;;-12.90;99.90;;;;;;5035011;28;20181;-72
2022/10/30 07:26:54;;;;;;;15.83;8.13;;;-16.10;99.90;;;;;;5051078;28;20215;-72
2022/10/30 07:29:20;;;;;;;17.13;7.50;;;-16.20;99.90;;;;;;5032990;28;20193;-73
2022/10/30 07:31:46;;;;;;;16.90;7.20;;;-15.70;99.90;;;;;;5051926;28;20189;-72
2022/10/30 07:34:12;;;;;;;12.30;8.27;;;-15.60;99.90;;;;;;5031222;28;20485;-75
2022/10/30 07:36:38;;;;;;;12.40;7.60;;;-15.30;99.90;;;;;;5047555;28;20184;-75
2022/10/30 07:39:03;;;;;;;12.33;6.73;;;-17.30;99.90;;;;;;5035177;28;20835;-72
2022/10/30 07:41:29;;;;;;;14.80;8.43;;;-16.60;99.90;;;;;;5032742;28;20226;-73
2022/10/30 07:43:55;;;;;;;20.33;9.17;;;-17.70;99.90;;;;;;5036141;28;20192;-71
2022/10/30 07:46:21;;;;;;;20.10;9.70;;;-15.80;99.90;;;;;;5029197;28;20192;-72
2022/10/30 07:48:46;;;;;;;17.07;8.70;;;-12.30;99.90;;;;;;5019436;28;20270;-73
2022/10/30 07:51:14;;;;;;;14.43;9.30;;;-17.00;99.90;;;;;;5035637;28;20188;-75
2022/10/30 07:53:46;;;;;;;15.47;8.77;;;-18.50;99.90;;;;;;5027159;28;20487;-74
2022/10/30 07:56:12;;;;;;;21.67;9.60;;;-15.70;99.90;;;;;;5034722;28;20179;-74
2022/10/30 07:58:37;;;;;;;12.47;8.27;;;-18.90;99.90;;;;;;5030152;28;20185;-73
2022/10/30 08:01:04;;;;;;;15.63;9.63;;;-14.80;99.90;;;;;;5025420;28;20283;-75
2022/10/30 08:03:29;;;;;;;18.87;9.10;;;-16.70;99.90;;;;;;5035953;28;20291;-76
2022/10/30 08:06:01;;;;;;;10.93;8.30;;;-18.10;99.90;;;;;;5021855;28;20647;-69
2022/10/30 08:08:27;;;;;;;21.03;8.07;;;-20.10;99.90;;;;;;5025145;28;20215;-71
2022/10/30 08:10:53;;;;;;;18.77;9.47;;;-20.10;99.90;;;;;;5022285;28;20185;-75
2022/10/30 08:13:18;;;;;;;15.97;7.93;;;-20.10;99.90;;;;;;5042713;28;20185;-74
2022/10/30 08:15:44;;;;;;;21.40;9.63;;;-17.30;99.90;;;;;;5019908;28;20188;-73
2022/10/30 08:18:10;;;;;;;20.20;7.93;;;-14.30;99.90;;;;;;5022709;28;20193;-73
2022/10/30 08:20:36;;;;;;;19.83;8.67;;;-16.80;99.90;;;;;;5031663;28;20212;-72
2022/10/30 08:23:01;;;;;;;18.87;8.23;;;-17.30;99.90;;;;;;5022038;28;20219;-73
2022/10/30 08:25:29;;;;;;;19.80;8.73;;;-15.90;99.90;;;;;;5029096;28;20188;-72
2022/10/30 08:28:04;;;;;;;26.73;9.43;;;-16.50;99.90;;;;;;5028218;28;20204;-74
2022/10/30 08:30:33;;;;;;;22.00;8.27;;;-14.60;99.90;;;;;;5026029;28;20245;-76
2022/10/30 08:33:02;;;;;;;23.50;9.17;;;-15.70;99.90;;;;;;5033228;28;20185;-75
2022/10/30 08:35:27;;;;;;;14.23;7.57;;;-18.40;99.90;;;;;;5029826;28;20184;-78
2022/10/30 08:37:57;;;;;;;13.67;7.33;;;-15.60;99.90;;;;;;5031073;28;20185;-71
2022/10/30 08:40:24;;;;;;;18.77;8.93;;;-19.40;99.90;;;;;;5017563;28;20197;-73
2022/10/30 08:42:51;;;;;;;19.57;8.47;;;-19.80;99.90;;;;;;5020755;28;20185;-73
2022/10/30 08:45:18;;;;;;;26.03;9.40;;;-21.30;99.90;;;;;;5034242;28;20183;-78
2022/10/30 08:47:43;;;;;;;26.53;9.43;;;-19.00;99.90;;;;;;5029751;28;20284;-74
2022/10/30 08:50:09;;;;;;;14.67;8.50;;;-19.90;99.90;;;;;;5026495;28;20269;-74
2022/10/30 08:52:35;;;;;;;17.50;8.50;;;-18.10;99.90;;;;;;5035077;28;20215;-72
2022/10/30 08:55:01;;;;;;;14.27;7.50;;;-27.70;99.90;;;;;;5032402;28;20766;-75
2022/10/30 08:57:27;;;;;;;21.40;8.03;;;-19.10;99.90;;;;;;5032937;28;20229;-77
2022/10/30 08:59:52;;;;;;;21.80;9.33;;;-19.40;99.90;;;;;;5035176;28;20212;-76
2022/10/30 09:02:18;;;;;;;11.93;5.33;;;-22.90;99.90;;;;;;5033054;28;20227;-75
2022/10/30 09:04:44;;;;;;;15.20;6.47;;;-22.40;99.90;;;;;;5046929;28;20199;-74
2022/10/30 09:07:10;;;;;;;11.87;5.60;;;-25.70;99.90;;;;;;5034824;28;20562;-78
2022/10/30 09:09:35;;;;;;;15.07;6.60;;;-23.30;99.90;;;;;;5034806;28;20191;-77
2022/10/30 09:12:01;;;;;;;8.57;5.13;;;-19.90;99.90;;;;;;5035505;28;20181;-76
2022/10/30 09:14:27;;;;;;;11.73;5.70;;;-29.50;99.90;;;;;;5030059;28;20197;-76
2022/10/30 09:16:56;;;;;;;12.77;5.00;;;-25.20;99.90;;;;;;5032023;28;20188;-74
2022/10/30 09:19:23;;;;;;;5.53;4.73;;;-40.00;99.90;;;;;;5032049;28;20187;-77
2022/10/30 09:21:51;;;;;;;12.77;5.37;;;-40.00;99.90;;;;;;5031230;28;20173;-75
2022/10/30 09:24:16;;;;;;;14.27;6.63;;;-40.00;99.90;;;;;;5034033;28;20852;-74
2022/10/30 09:26:42;;;;;;;12.60;5.40;;;-40.00;99.90;;;;;;5029644;28;20200;-71
2022/10/30 09:29:08;;;;;;;6.80;4.93;;;-38.20;99.90;;;;;;5025635;28;20185;-75
2022/10/30 09:31:34;;;;;;;12.77;5.90;;;-40.00;99.90;;;;;;5029050;28;20248;-77
2022/10/30 09:33:59;;;;;;;11.37;5.00;;;-40.00;99.90;;;;;;5032653;28;20271;-78
2022/10/30 09:36:25;;;;;;;27.90;5.70;;;-40.00;99.90;;;;;;5028938;28;20242;-78
2022/10/30 09:38:52;;;;;;;10.70;5.50;;;-40.00;99.90;;;;;;5027087;28;20181;-79
2022/10/30 09:41:27;;;;;;;9.10;5.83;;;-40.00;99.90;;;;;;5032705;28;20173;-77
2022/10/30 09:44:05;;;;;;;12.40;5.13;;;-40.00;99.90;;;;;;5031955;28;20263;-77
2022/10/30 09:46:45;;;;;;;14.87;4.37;;;-40.00;99.90;;;;;;5034452;28;20177;-73
2022/10/30 09:49:44;;;;;;;6.30;4.50;;;-40.00;99.90;;;;;;5032738;28;20176;-71
2022/10/30 09:52:32;;;;;;;10.27;5.13;;;-40.00;99.90;;;;;;5032465;28;20180;-72
2022/10/30 09:55:25;;;;;;;10.57;4.37;;;-40.00;99.90;;;;;;5032467;28;20234;-72
2022/10/30 09:58:00;;;;;;;13.80;4.97;;;-40.00;99.90;;;;;;5024986;28;20173;-70
2022/10/30 10:00:38;;;;;;;8.23;4.33;;;-40.00;99.90;;;;;;5033245;28;20188;-71
2022/10/30 10:03:41;;;;;;;7.57;4.57;;;-40.00;99.90;;;;;;5030396;28;20209;-74
2022/10/30 10:06:16;;;;;;;13.57;4.80;;;-40.00;99.90;;;;;;5034178;28;20176;-74
2022/10/30 10:08:50;;;;;;;13.90;5.13;;;-40.00;99.90;;;;;;5024974;28;20231;-69
2022/10/30 10:11:24;;;;;;;7.33;4.57;;;-40.00;99.90;;;;;;5032878;28;20180;-70
2022/10/30 10:14:07;;;;;;;13.03;5.47;;;-40.00;99.90;;;;;;5036624;28;20213;-70
2022/10/30 10:16:37;;;;;;;17.30;6.60;;;-40.00;99.90;;;;;;5032979;28;20188;-72
2022/10/30 10:19:31;;;;;;;18.60;5.10;;;-40.00;99.90;;;;;;5038110;28;20214;-71
2022/10/30 10:21:59;;;;;;;12.20;5.00;;;-40.00;99.90;;;;;;5034930;28;20181;-73
2022/10/30 10:24:37;;;;;;;9.33;5.30;;;-40.00;99.90;;;;;;5037725;28;20180;-73
2022/10/30 10:27:09;;;;;;;15.50;6.93;;;-40.00;99.90;;;;;;5025391;28;20205;-70
2022/10/30 10:29:49;;;;;;;14.80;6.23;;;-40.00;99.90;;;;;;5023027;28;20177;-71
2022/10/30 10:32:27;;;;;;;16.33;6.20;;;-40.00;99.90;;;;;;5027172;28;20193;-70
2022/10/30 10:35:18;;;;;;;17.37;7.43;;;-40.00;99.90;;;;;;5025327;28;20216;-69
2022/10/30 10:38:05;;;;;;;15.07;5.67;;;-40.00;99.90;;;;;;5037173;28;20180;-70
2022/10/30 10:41:09;;;;;;;20.87;6.20;;;-40.00;99.90;;;;;;5033986;28;20185;-72
2022/10/30 10:43:56;;;;;;;12.27;5.30;;;-40.00;99.90;;;;;;5025916;28;20507;-74
2022/10/30 10:46:43;;;;;;;10.23;6.13;;;-40.00;99.90;;;;;;5044875;28;20233;-75
2022/10/30 10:49:27;;;;;;;6.57;5.87;;;-40.00;99.90;;;;;;5030555;28;20260;-74
2022/10/30 10:51:59;;;;;;;17.13;7.73;;;-40.00;99.90;;;;;;5031825;28;20173;-76
2022/10/30 10:54:41;;;;;;;9.70;5.83;;;-40.00;99.90;;;;;;5037641;28;20188;-72
2022/10/30 10:57:12;;;;;;;19.33;7.00;;;-40.00;99.90;;;;;;5031506;28;20191;-73
2022/10/30 10:59:44;;;;;;;11.13;5.53;;;-40.00;99.90;;;;;;5037605;28;20275;-74
2022/10/30 11:02:39;;;;;;;12.87;6.20;;;-40.00;99.90;;;;;;5022716;28;20217;-76
2022/10/30 11:05:35;;;;;;;17.93;6.70;;;-40.00;99.90;;;;;;5027210;28;20192;-77
2022/10/30 11:08:12;;;;;;;23.90;6.43;;;-40.00;99.90;;;;;;5035116;28;20624;-74
2022/10/30 11:10:38;;;;;;;9.33;5.57;;;-40.00;99.90;;;;;;5036901;28;20182;-75
2022/10/30 11:13:04;;;;;;;13.70;7.60;;;-40.00;99.90;;;;;;5033969;28;20204;-77
2022/10/30 11:15:40;;;;;;;12.80;6.77;;;-40.00;99.80;;;;;;5028058;28;20212;-74
2022/10/30 11:18:08;;;;;;;12.53;5.50;;;-40.00;99.80;;;;;;5032731;28;20231;-73
2022/10/30 11:21:02;;;;;;;15.20;6.40;;;-40.00;99.90;;;;;;5030449;28;20227;-77
2022/10/30 11:23:37;;;;;;;11.13;5.83;;;-40.00;99.80;;;;;;5036949;28;20196;-70
2022/10/30 11:26:05;;;;;;;12.70;6.27;;;-40.00;99.90;;;;;;5030426;28;20266;-76
2022/10/30 11:29:13;;;;;;;10.30;5.10;;;-40.00;99.70;;;;;;5032534;28;20205;-73
2022/10/30 11:31:41;;;;;;;12.77;6.57;;;-40.00;99.20;;;;;;5016984;28;20200;-75
2022/10/30 11:34:13;;;;;;;11.53;5.10;;;-40.00;99.50;;;;;;5029052;28;20180;-76
2022/10/30 11:36:39;;;;;;;18.37;5.63;;;-40.00;99.10;;;;;;5038350;28;20177;-69
2022/10/30 11:39:34;;;;;;;13.70;7.53;;;-40.00;99.30;;;;;;5030482;28;20627;-69
2022/10/30 11:42:14;;;;;;;10.60;5.40;;;-40.00;98.60;;;;;;5033540;28;20257;-70
2022/10/30 11:44:59;;;;;;;12.37;6.77;;;-40.00;99.00;;;;;;5030609;28;20184;-72
2022/10/30 11:47:31;;;;;;;11.70;5.83;;;-40.00;99.30;;;;;;5029624;28;20208;-76
2022/10/30 11:50:03;;;;;;;13.83;6.30;;;-40.00;98.00;;;;;;5032562;28;20460;-75
2022/10/30 11:52:36;;;;;;;20.53;7.23;;;-40.00;98.00;;;;;;5035106;28;20653;-72
2022/10/30 11:55:09;;;;;;;22.23;7.87;;;-40.00;99.00;;;;;;5028372;28;20455;-72
2022/10/30 11:57:50;;;;;;;12.43;7.37;;;-40.00;98.60;;;;;;5032459;28;20549;-74
2022/10/30 12:00:25;;;;;;;13.77;6.03;;;-40.00;98.70;;;;;;5033364;28;20267;-70
2022/10/30 12:02:56;;;;;;;12.97;6.60;;;-40.00;98.70;;;;;;5036431;28;20226;-70
2022/10/30 12:05:29;;;;;;;12.53;6.17;;;-40.00;99.90;;;;;;5018892;28;20185;-75
2022/10/30 12:08:07;;;;;;;9.43;5.47;;;-40.00;99.90;;;;;;5032589;28;20514;-71
2022/10/30 12:10:49;;;;;;;9.77;5.50;;;-40.00;99.70;;;;;;5018193;28;20200;-70
2022/10/30 12:13:17;;;;;;;26.67;7.13;;;-40.00;99.90;;;;;;5027170;28;20205;-72
2022/10/30 12:15:45;;;;;;;8.00;4.67;;;-40.00;99.90;;;;;;5025512;28;20186;-72
2022/10/30 12:18:24;;;;;;;13.03;7.03;;;-40.00;99.60;;;;;;5027072;28;20196;-74
2022/10/30 12:20:56;;;;;;;9.20;5.40;;;-40.00;98.90;;;;;;5028224;28;20200;-71
2022/10/30 12:23:24;;;;;;;11.97;5.20;;;-40.00;98.60;;;;;;5033176;28;20180;-71
2022/10/30 12:26:08;;;;;;;11.47;5.43;;;-40.00;98.70;;;;;;5036040;28;20183;-73
2022/10/30 12:28:34;;;;;;;11.87;5.70;;;-40.00;98.60;;;;;;5027840;28;21041;-70
2022/10/30 12:31:12;;;;;;;8.17;4.93;;;-40.00;98.30;;;;;;5043434;28;20271;-71
2022/10/30 12:34:00;;;;;;;10.83;5.07;;;-40.00;97.90;;;;;;5022634;28;20205;-70
2022/10/30 12:36:29;;;;;;;8.67;4.33;;;-40.00;97.60;;;;;;5025872;28;20177;-73
2022/10/30 12:39:04;;;;;;;11.17;5.80;;;-40.00;96.90;;;;;;5035469;28;20219;-71
2022/10/30 12:41:52;;;;;;;9.13;5.13;;;-40.00;96.70;;;;;;5029045;28;20589;-74
2022/10/30 12:44:58;;;;;;;8.67;4.40;;;-40.00;94.80;;;;;;5034771;28;20203;-72